Time;durP1;ratioP1;P1;durP2;ratioP2;P2;SDS_P1;SDS_P2;PMS_P1;PMS_P2;Temp;Humidity;BMP_temperature;BMP_pressure;BME280_temperature;BME280_humidity;BME280_pressure;Samples;Min_cycle;Max_cycle;Signal;HPM_P1;HPM_P2
2021/08/13 00:01:47;;;;;;;24.50;22.93;;;;;;;;;;5075260;28;20405;-95
2021/08/13 00:04:15;;;;;;;24.53;22.93;;;;;;;;;;5075145;28;20480;-94
2021/08/13 00:06:42;;;;;;;25.73;24.00;;;;;;;;;;5074843;28;20977;-94
2021/08/13 00:09:11;;;;;;;23.90;22.50;;;;;;;;;;5057293;28;20935;-95
2021/08/13 00:11:39;;;;;;;25.53;23.70;;;;;;;;;;5074962;28;20805;-96
2021/08/13 00:14:08;;;;;;;24.93;23.50;;;;;;;;;;5075779;28;20432;-95
2021/08/13 00:16:35;;;;;;;25.37;23.67;;;;;;;;;;5074702;28;20485;-95
2021/08/13 00:19:03;;;;;;;24.80;23.13;;;;;;;;;;5074648;28;20438;-95
2021/08/13 00:21:31;;;;;;;25.10;23.53;;;;;;;;;;5075055;28;20796;-95
2021/08/13 00:23:58;;;;;;;24.70;23.20;;;;;;;;;;5075014;28;20491;-95
2021/08/13 00:26:28;;;;;;;24.63;22.97;;;;;;;;;;5074696;28;20462;-95
2021/08/13 00:28:55;;;;;;;24.47;22.87;;;;;;;;;;5075300;28;20443;-95
2021/08/13 00:31:23;;;;;;;24.50;23.00;;;;;;;;;;5074419;28;20467;-95
2021/08/13 00:33:50;;;;;;;25.33;23.50;;;;;;;;;;5074718;28;20440;-94
2021/08/13 00:36:18;;;;;;;24.80;23.30;;;;;;;;;;5056703;28;20438;-94
2021/08/13 00:38:45;;;;;;;25.20;23.53;;;;;;;;;;5074391;28;20440;-95
2021/08/13 00:41:12;;;;;;;24.37;22.87;;;;;;;;;;5056567;28;20498;-95
2021/08/13 00:43:41;;;;;;;24.60;22.70;;;;;;;;;;5074224;28;20487;-94
2021/08/13 00:46:09;;;;;;;24.03;22.60;;;;;;;;;;5074563;28;20801;-94
2021/08/13 00:48:37;;;;;;;24.67;23.07;;;;;;;;;;5075097;28;20726;-95
2021/08/13 00:51:05;;;;;;;25.33;23.60;;;;;;;;;;5056720;28;20516;-95
2021/08/13 00:53:32;;;;;;;23.90;22.27;;;;;;;;;;5056785;28;20496;-95
2021/08/13 00:56:00;;;;;;;24.63;22.67;;;;;;;;;;5074031;28;20463;-95
2021/08/13 00:58:28;;;;;;;24.40;22.90;;;;;;;;;;5074596;28;20413;-94
2021/08/13 01:00:58;;;;;;;24.97;23.37;;;;;;;;;;5074872;28;20418;-93
2021/08/13 01:03:25;;;;;;;24.00;22.50;;;;;;;;;;5073952;28;20493;-94
2021/08/13 01:05:53;;;;;;;24.87;22.77;;;;;;;;;;5074171;28;20938;-94
2021/08/13 01:08:20;;;;;;;24.60;23.00;;;;;;;;;;5074777;28;20448;-94
2021/08/13 01:10:49;;;;;;;25.07;23.40;;;;;;;;;;5073819;28;20463;-95
2021/08/13 01:13:21;;;;;;;24.13;22.63;;;;;;;;;;5074051;28;20486;-95
2021/08/13 01:15:49;;;;;;;25.80;24.10;;;;;;;;;;5073814;28;20460;-94
2021/08/13 01:18:21;;;;;;;25.63;24.07;;;;;;;;;;5074000;28;20414;-94
2021/08/13 01:20:56;;;;;;;25.30;23.50;;;;;;;;;;5056670;28;20412;-94
2021/08/13 01:23:26;;;;;;;25.77;23.90;;;;;;;;;;5074247;28;20458;-95
2021/08/13 01:25:56;;;;;;;25.07;23.47;;;;;;;;;;5056846;28;20410;-94
2021/08/13 01:28:29;;;;;;;24.80;23.20;;;;;;;;;;5073928;28;20445;-95
2021/08/13 01:30:57;;;;;;;25.83;24.03;;;;;;;;;;5074026;28;20436;-95
2021/08/13 01:33:26;;;;;;;25.27;23.67;;;;;;;;;;5074117;28;20437;-95
2021/08/13 01:35:54;;;;;;;27.07;25.07;;;;;;;;;;5073849;28;20400;-95
2021/08/13 01:38:24;;;;;;;25.30;23.57;;;;;;;;;;5074193;28;20422;-94
2021/08/13 01:40:53;;;;;;;25.33;23.53;;;;;;;;;;5056269;28;20445;-94
2021/08/13 01:43:22;;;;;;;27.07;25.20;;;;;;;;;;5073817;28;20467;-94
2021/08/13 01:45:50;;;;;;;25.50;23.80;;;;;;;;;;5074084;28;20479;-94
2021/08/13 01:48:18;;;;;;;27.17;25.13;;;;;;;;;;5074324;28;20433;-94
2021/08/13 01:50:47;;;;;;;28.67;26.57;;;;;;;;;;5056217;28;20912;-94
2021/08/13 01:53:15;;;;;;;27.90;25.90;;;;;;;;;;5073950;28;20401;-95
2021/08/13 01:55:43;;;;;;;28.17;25.90;;;;;;;;;;5056008;28;20430;-95
2021/08/13 01:58:11;;;;;;;27.63;25.50;;;;;;;;;;5073600;28;20429;-94
2021/08/13 02:00:39;;;;;;;25.80;24.03;;;;;;;;;;5073970;28;20772;-95
2021/08/13 02:03:07;;;;;;;26.93;24.90;;;;;;;;;;5056099;28;20895;-94
2021/08/13 02:05:37;;;;;;;26.20;24.40;;;;;;;;;;5074043;28;20443;-94
2021/08/13 02:08:07;;;;;;;26.67;24.97;;;;;;;;;;5076563;28;20419;-94
2021/08/13 02:10:36;;;;;;;26.17;24.50;;;;;;;;;;5076972;28;20433;-94
2021/08/13 02:13:03;;;;;;;26.77;25.07;;;;;;;;;;5059463;28;20419;-93
2021/08/13 02:15:31;;;;;;;28.30;26.30;;;;;;;;;;5076993;28;20899;-94
2021/08/13 02:18:02;;;;;;;28.60;26.60;;;;;;;;;;5076824;28;20434;-94
2021/08/13 02:20:31;;;;;;;27.90;26.00;;;;;;;;;;5077851;28;20404;-95
2021/08/13 02:22:58;;;;;;;27.17;25.37;;;;;;;;;;5076961;28;20456;-94
2021/08/13 02:25:27;;;;;;;27.17;25.37;;;;;;;;;;5059085;28;20422;-94
2021/08/13 02:27:54;;;;;;;28.47;26.57;;;;;;;;;;5076640;28;20433;-94
2021/08/13 02:30:22;;;;;;;28.20;26.10;;;;;;;;;;5076835;28;20445;-95
2021/08/13 02:32:49;;;;;;;27.53;25.63;;;;;;;;;;5076627;28;20430;-94
2021/08/13 02:35:17;;;;;;;28.43;26.30;;;;;;;;;;5059025;28;20426;-95
2021/08/13 02:37:47;;;;;;;30.17;27.90;;;;;;;;;;5076531;28;20413;-94
2021/08/13 02:40:16;;;;;;;28.47;26.47;;;;;;;;;;5076893;28;20480;-93
2021/08/13 02:42:47;;;;;;;28.50;26.50;;;;;;;;;;5076506;28;20832;-94
2021/08/13 02:45:15;;;;;;;28.87;26.90;;;;;;;;;;5076582;28;20405;-94
2021/08/13 02:47:45;;;;;;;27.63;25.77;;;;;;;;;;5076288;28;20458;-94
2021/08/13 02:50:13;;;;;;;28.93;26.93;;;;;;;;;;5059560;28;20413;-94
2021/08/13 02:52:43;;;;;;;29.07;27.07;;;;;;;;;;5076588;28;20424;-94
2021/08/13 02:55:11;;;;;;;28.97;26.77;;;;;;;;;;5076427;28;20936;-94
2021/08/13 02:57:39;;;;;;;28.53;26.53;;;;;;;;;;5076924;28;20424;-94
2021/08/13 03:00:09;;;;;;;30.67;28.23;;;;;;;;;;5058612;28;20810;-94
2021/08/13 03:02:38;;;;;;;27.83;25.80;;;;;;;;;;5076261;28;20749;-94
2021/08/13 03:05:06;;;;;;;27.93;25.93;;;;;;;;;;5076130;28;20430;-95
2021/08/13 03:07:34;;;;;;;27.20;25.23;;;;;;;;;;5075994;28;20473;-94
2021/08/13 03:10:03;;;;;;;27.70;25.90;;;;;;;;;;5076027;28;20430;-94
2021/08/13 03:12:31;;;;;;;28.20;26.20;;;;;;;;;;5076181;28;20432;-95
2021/08/13 03:14:59;;;;;;;29.90;27.43;;;;;;;;;;5075602;28;20455;-94
2021/08/13 03:17:28;;;;;;;26.87;25.07;;;;;;;;;;5076171;28;20404;-94
2021/08/13 03:19:56;;;;;;;28.43;26.50;;;;;;;;;;5076366;28;20439;-94
2021/08/13 03:22:23;;;;;;;28.40;26.50;;;;;;;;;;5075583;28;20935;-93
2021/08/13 03:24:51;;;;;;;29.50;27.20;;;;;;;;;;5058128;28;20895;-94
2021/08/13 03:27:19;;;;;;;29.17;26.80;;;;;;;;;;5075458;28;20458;-94
2021/08/13 03:29:46;;;;;;;28.53;26.57;;;;;;;;;;5075845;28;20426;-94
2021/08/13 03:32:14;;;;;;;28.00;26.20;;;;;;;;;;5075699;28;20532;-94
2021/08/13 03:34:42;;;;;;;30.57;28.43;;;;;;;;;;5075487;28;20444;-93
2021/08/13 03:37:10;;;;;;;28.53;26.63;;;;;;;;;;5057940;28;20848;-94
2021/08/13 03:39:37;;;;;;;29.17;26.70;;;;;;;;;;5075681;28;20402;-94
2021/08/13 03:42:05;;;;;;;28.63;26.77;;;;;;;;;;5075700;28;20451;-93
2021/08/13 03:44:32;;;;;;;28.03;26.23;;;;;;;;;;5074898;28;20521;-94
2021/08/13 03:47:00;;;;;;;29.20;27.00;;;;;;;;;;5075146;28;20462;-93
2021/08/13 03:49:27;;;;;;;28.33;26.17;;;;;;;;;;5075008;28;20428;-94
2021/08/13 03:51:57;;;;;;;30.30;28.10;;;;;;;;;;5075367;28;20421;-93
2021/08/13 03:54:24;;;;;;;29.97;27.80;;;;;;;;;;5075276;28;20436;-94
2021/08/13 03:56:52;;;;;;;29.20;26.80;;;;;;;;;;5075369;28;20437;-93
2021/08/13 03:59:19;;;;;;;30.17;27.50;;;;;;;;;;5057834;28;20434;-94
2021/08/13 04:01:47;;;;;;;30.67;28.20;;;;;;;;;;5075274;28;20414;-94
2021/08/13 04:04:14;;;;;;;29.83;27.73;;;;;;;;;;5074642;28;20496;-93
2021/08/13 04:06:41;;;;;;;29.03;27.07;;;;;;;;;;5074698;28;20456;-93
2021/08/13 04:09:10;;;;;;;27.50;25.40;;;;;;;;;;5057476;28;20473;-93
2021/08/13 04:11:38;;;;;;;29.50;27.50;;;;;;;;;;5057316;28;20484;-93
2021/08/13 04:14:05;;;;;;;29.27;27.00;;;;;;;;;;5075086;28;20789;-93
2021/08/13 04:16:33;;;;;;;28.10;26.10;;;;;;;;;;5074456;28;20463;-93
2021/08/13 04:19:00;;;;;;;28.93;26.90;;;;;;;;;;5060072;28;20517;-94
2021/08/13 04:21:27;;;;;;;28.93;26.93;;;;;;;;;;5075084;28;20423;-92
2021/08/13 04:23:55;;;;;;;30.30;28.00;;;;;;;;;;5074555;28;20448;-93
2021/08/13 04:26:23;;;;;;;29.80;27.70;;;;;;;;;;5074470;28;20438;-93
2021/08/13 04:28:51;;;;;;;30.77;28.27;;;;;;;;;;5073991;28;20457;-94
2021/08/13 04:31:18;;;;;;;30.33;27.90;;;;;;;;;;5074428;28;20532;-96
2021/08/13 04:33:46;;;;;;;29.70;27.40;;;;;;;;;;5074773;28;20891;-92
2021/08/13 04:36:13;;;;;;;29.17;26.97;;;;;;;;;;5074270;28;20430;-92
2021/08/13 04:38:41;;;;;;;29.20;27.10;;;;;;;;;;5076531;28;20434;-96
2021/08/13 04:41:09;;;;;;;29.27;26.97;;;;;;;;;;5088569;28;20502;-96
2021/08/13 04:43:39;;;;;;;30.47;28.40;;;;;;;;;;5086267;28;20491;-96
2021/08/13 04:46:06;;;;;;;28.63;26.53;;;;;;;;;;5080658;28;20425;-96
2021/08/13 04:48:34;;;;;;;29.00;27.00;;;;;;;;;;5084402;28;20453;-96
2021/08/13 04:51:06;;;;;;;29.50;27.30;;;;;;;;;;5060016;28;20424;-96
2021/08/13 04:53:34;;;;;;;28.33;26.43;;;;;;;;;;5075092;28;20430;-96
2021/08/13 05:13:57;;;;;;;28.70;26.57;;;;;;;;;;5034670;28;20425;-96
2021/08/13 05:16:29;;;;;;;29.90;27.70;;;;;;;;;;5017482;28;20510;-96
2021/08/13 05:19:01;;;;;;;28.97;26.97;;;;;;;;;;5031608;28;20492;-96
2021/08/13 05:21:31;;;;;;;28.63;26.73;;;;;;;;;;5033365;28;20854;-97
2021/08/13 05:27:35;;;;;;;29.20;27.30;;;;;;;;;;5138720;23;20478;-96
2021/08/13 05:30:10;;;;;;;29.10;26.90;;;;;;;;;;5016206;28;20501;-96
2021/08/13 05:32:45;;;;;;;28.23;26.43;;;;;;;;;;5066394;23;20499;-96
2021/08/13 05:38:00;;;;;;;27.17;25.37;;;;;;;;;;5091548;23;20458;-96
2021/08/13 05:40:29;;;;;;;27.27;25.57;;;;;;;;;;5049920;28;20421;-96
2021/08/13 05:42:59;;;;;;;30.13;28.20;;;;;;;;;;5061398;28;20493;-97
2021/08/13 05:45:50;;;;;;;26.70;25.00;;;;;;;;;;5113480;22;20479;-96
2021/08/13 05:48:28;;;;;;;27.60;25.73;;;;;;;;;;5077640;28;20433;-97
2021/08/13 05:50:55;;;;;;;27.10;25.20;;;;;;;;;;5076732;28;20527;-96
2021/08/13 05:53:33;;;;;;;30.43;28.30;;;;;;;;;;5080025;28;20401;-96
2021/08/13 05:56:05;;;;;;;29.40;27.30;;;;;;;;;;5060988;28;20447;-96
2021/08/13 05:58:34;;;;;;;28.87;26.80;;;;;;;;;;5080573;28;20432;-96
2021/08/13 06:01:02;;;;;;;29.83;27.70;;;;;;;;;;5078992;28;20442;-96
2021/08/13 06:03:36;;;;;;;29.07;26.97;;;;;;;;;;5062544;28;20440;-96
2021/08/13 06:11:37;;;;;;;28.20;26.13;;;;;;;;;;5077028;28;20447;-96
2021/08/13 06:32:51;;;;;;;29.03;27.00;;;;;;;;;;5039274;28;20481;-96
2021/08/13 06:35:19;;;;;;;27.63;25.60;;;;;;;;;;5042939;28;20453;-96
2021/08/13 06:37:47;;;;;;;28.40;26.40;;;;;;;;;;5040014;28;20453;-96
2021/08/13 06:40:15;;;;;;;26.90;25.10;;;;;;;;;;5040684;28;20439;-96
2021/08/13 06:42:54;;;;;;;28.60;26.60;;;;;;;;;;5067272;23;20510;-96
2021/08/13 06:59:53;;;;;;;26.43;24.53;;;;;;;;;;5510045;22;20492;-96
2021/08/13 07:30:58;;;;;;;28.37;26.37;;;;;;;;;;5073150;22;20474;-94
2021/08/13 07:33:51;;;;;;;26.87;25.10;;;;;;;;;;5477350;22;20430;-96
2021/08/13 07:36:25;;;;;;;26.97;25.20;;;;;;;;;;5034623;28;20511;-96
2021/08/13 07:38:57;;;;;;;27.70;25.50;;;;;;;;;;5050995;23;20472;-95
2021/08/13 07:41:25;;;;;;;27.30;25.47;;;;;;;;;;5082183;22;20496;-97
2021/08/13 07:57:40;;;;;;;28.40;26.50;;;;;;;;;;5985290;22;20540;-93
2021/08/13 08:22:35;;;;;;;27.13;25.23;;;;;;;;;;5076387;22;20515;-94
2021/08/13 08:34:26;;;;;;;27.23;25.53;;;;;;;;;;5479455;22;20551;-96
2021/08/13 08:42:16;;;;;;;28.50;26.47;;;;;;;;;;5067392;22;20249;-95
2021/08/13 08:44:45;;;;;;;27.77;25.67;;;;;;;;;;5064543;22;20215;-89
2021/08/13 08:49:45;;;;;;;28.93;26.93;;;;;;;;;;5046815;28;20575;-94
2021/08/13 08:58:44;;;;;;;26.77;25.13;;;;;;;;;;5199362;22;20501;-96
2021/08/13 09:04:40;;;;;;;29.20;27.17;;;;;;;;;;5503301;22;20456;-93
2021/08/13 09:17:16;;;;;;;29.93;27.97;;;;;;;;;;5205499;22;20517;-96
2021/08/13 09:19:48;;;;;;;29.30;27.30;;;;;;;;;;5050483;28;20439;-93
2021/08/13 09:22:18;;;;;;;30.10;27.80;;;;;;;;;;5068163;22;20452;-90
2021/08/13 09:24:47;;;;;;;30.10;27.97;;;;;;;;;;5063811;28;20484;-96
2021/08/13 09:27:18;;;;;;;28.60;26.50;;;;;;;;;;5063569;28;20439;-90
2021/08/13 09:32:27;;;;;;;29.07;26.97;;;;;;;;;;5067135;22;20477;-96
2021/08/13 09:34:57;;;;;;;28.70;26.70;;;;;;;;;;5073609;28;20437;-96
2021/08/13 09:37:27;;;;;;;29.93;27.93;;;;;;;;;;5073331;28;20519;-96
2021/08/13 09:42:41;;;;;;;30.97;28.87;;;;;;;;;;5067616;28;20437;-96
2021/08/13 09:45:10;;;;;;;29.20;27.10;;;;;;;;;;5072252;28;20991;-96
2021/08/13 09:47:42;;;;;;;30.37;28.00;;;;;;;;;;5071811;28;20903;-96
2021/08/13 09:50:12;;;;;;;29.17;26.87;;;;;;;;;;5070534;28;20447;-96
2021/08/13 09:52:40;;;;;;;30.27;28.17;;;;;;;;;;5076707;28;20440;-96
2021/08/13 09:55:14;;;;;;;30.30;28.10;;;;;;;;;;5057718;28;20417;-96
2021/08/13 09:57:42;;;;;;;29.63;27.47;;;;;;;;;;5073097;28;20405;-96
2021/08/13 10:00:10;;;;;;;28.57;26.57;;;;;;;;;;5075581;28;20429;-96
2021/08/13 10:02:39;;;;;;;31.00;28.80;;;;;;;;;;5073783;28;20437;-96
2021/08/13 10:05:23;;;;;;;31.83;29.73;;;;;;;;;;5061536;28;20464;-96
2021/08/13 10:07:52;;;;;;;31.40;29.10;;;;;;;;;;5077190;28;20437;-96
2021/08/13 10:10:24;;;;;;;32.13;29.63;;;;;;;;;;5076708;28;20413;-96
2021/08/13 10:12:53;;;;;;;31.10;29.00;;;;;;;;;;5076667;28;20445;-96
2021/08/13 10:15:30;;;;;;;29.83;27.80;;;;;;;;;;5076514;28;20418;-96
2021/08/13 10:17:58;;;;;;;32.27;29.83;;;;;;;;;;5062003;28;20754;-96
2021/08/13 10:22:59;;;;;;;31.53;29.33;;;;;;;;;;5078183;22;20472;-96
2021/08/13 10:25:27;;;;;;;29.20;27.10;;;;;;;;;;5075831;28;20464;-96
2021/08/13 10:27:55;;;;;;;31.47;29.10;;;;;;;;;;5079059;28;20451;-96
2021/08/13 10:30:23;;;;;;;32.33;29.93;;;;;;;;;;5079015;28;20414;-96
2021/08/13 10:32:56;;;;;;;31.47;29.13;;;;;;;;;;5061257;28;20453;-96
2021/08/13 10:40:37;;;;;;;29.73;27.73;;;;;;;;;;5049736;28;20507;-96
2021/08/13 10:43:04;;;;;;;29.37;27.27;;;;;;;;;;5054262;28;20503;-96
2021/08/13 10:45:34;;;;;;;29.90;27.90;;;;;;;;;;5051463;28;20490;-96
2021/08/13 10:48:04;;;;;;;29.83;27.83;;;;;;;;;;5054626;28;20442;-96
2021/08/13 10:50:32;;;;;;;29.20;27.07;;;;;;;;;;5054482;28;20492;-96
2021/08/13 10:53:00;;;;;;;27.87;26.07;;;;;;;;;;5052914;28;20407;-96
2021/08/13 10:55:58;;;;;;;27.77;25.70;;;;;;;;;;5054611;28;20454;-96
2021/08/13 10:58:58;;;;;;;28.07;25.93;;;;;;;;;;5027613;28;20414;-96
2021/08/13 11:01:43;;;;;;;27.93;26.10;;;;;;;;;;5053403;28;20458;-96
2021/08/13 11:04:13;;;;;;;29.90;27.40;;;;;;;;;;5048277;28;20434;-96
2021/08/13 11:06:47;;;;;;;28.70;26.80;;;;;;;;;;5053301;28;20429;-96
2021/08/13 11:09:15;;;;;;;29.63;27.30;;;;;;;;;;5055176;28;20466;-96
2021/08/13 11:12:02;;;;;;;29.50;27.20;;;;;;;;;;5052625;28;20420;-96
2021/08/13 11:14:33;;;;;;;28.23;26.07;;;;;;;;;;5054037;28;20459;-96
2021/08/13 11:17:01;;;;;;;28.23;26.23;;;;;;;;;;5051054;28;20437;-96
2021/08/13 11:19:51;;;;;;;29.47;27.47;;;;;;;;;;5052572;28;20429;-96
2021/08/13 11:22:52;;;;;;;29.70;27.50;;;;;;;;;;5052411;28;20419;-96
2021/08/13 11:25:39;;;;;;;29.53;27.40;;;;;;;;;;5053315;28;20490;-96
2021/08/13 11:28:18;;;;;;;31.30;29.13;;;;;;;;;;5057307;28;20440;-96
2021/08/13 11:30:46;;;;;;;31.27;28.87;;;;;;;;;;5052889;28;20396;-96
2021/08/13 11:33:32;;;;;;;29.70;27.60;;;;;;;;;;5054662;28;20443;-96
2021/08/13 11:36:02;;;;;;;30.27;27.80;;;;;;;;;;5056102;28;20536;-96
2021/08/13 11:38:50;;;;;;;30.13;27.93;;;;;;;;;;5052586;28;20440;-96
2021/08/13 11:41:28;;;;;;;29.93;27.73;;;;;;;;;;5051744;28;20456;-96
2021/08/13 11:43:56;;;;;;;31.50;29.00;;;;;;;;;;5056905;28;20398;-96
2021/08/13 11:46:28;;;;;;;31.43;29.13;;;;;;;;;;5054249;28;20479;-96
2021/08/13 11:48:57;;;;;;;33.43;30.87;;;;;;;;;;5053374;28;20449;-96
2021/08/13 11:51:44;;;;;;;32.53;30.10;;;;;;;;;;5094389;22;20482;-96
2021/08/13 11:54:39;;;;;;;33.43;30.67;;;;;;;;;;5071250;28;20405;-96
2021/08/13 11:57:13;;;;;;;30.40;28.27;;;;;;;;;;5056559;28;20408;-96
2021/08/13 11:59:42;;;;;;;31.07;28.87;;;;;;;;;;5072294;28;20443;-96
2021/08/13 12:02:09;;;;;;;33.47;30.73;;;;;;;;;;5077164;28;20474;-96
2021/08/13 12:04:37;;;;;;;32.13;29.53;;;;;;;;;;5074570;28;20438;-96
2021/08/13 12:07:06;;;;;;;32.33;29.93;;;;;;;;;;5077172;28;20422;-96
2021/08/13 12:09:37;;;;;;;32.20;29.90;;;;;;;;;;5076669;28;20486;-96
2021/08/13 12:12:05;;;;;;;33.60;30.80;;;;;;;;;;5073209;28;20450;-96
2021/08/13 12:14:33;;;;;;;34.20;30.90;;;;;;;;;;5082073;22;20591;-96
2021/08/13 12:17:02;;;;;;;32.50;29.80;;;;;;;;;;5074243;28;20406;-96
2021/08/13 12:19:30;;;;;;;34.80;32.07;;;;;;;;;;5075417;28;20436;-96
2021/08/13 12:21:59;;;;;;;35.77;33.17;;;;;;;;;;5074167;28;20937;-96
2021/08/13 12:24:30;;;;;;;34.63;31.93;;;;;;;;;;5057568;28;20410;-96
2021/08/13 12:27:00;;;;;;;34.47;31.67;;;;;;;;;;5057491;28;20451;-96
2021/08/13 15:14:57;;;;;;;23.63;21.90;;;;;;;;;;5056292;28;20971;-88
2021/08/13 15:17:24;;;;;;;22.83;21.33;;;;;;;;;;5038321;28;20506;-93
2021/08/13 15:19:52;;;;;;;22.33;21.00;;;;;;;;;;5056894;28;20428;-87
2021/08/13 15:22:20;;;;;;;23.17;21.57;;;;;;;;;;5056707;28;20510;-92
2021/08/13 15:24:48;;;;;;;22.37;20.97;;;;;;;;;;5056774;28;20435;-96
2021/08/13 15:27:15;;;;;;;23.03;21.63;;;;;;;;;;5062159;28;20984;-91
2021/08/13 15:29:42;;;;;;;23.00;21.50;;;;;;;;;;5056217;28;20890;-89
2021/08/13 15:32:11;;;;;;;23.00;21.60;;;;;;;;;;5055831;28;20437;-88
2021/08/13 15:34:39;;;;;;;21.77;20.47;;;;;;;;;;5037871;28;20449;-88
2021/08/13 15:37:06;;;;;;;22.17;20.77;;;;;;;;;;5056589;28;20434;-88
2021/08/13 15:39:34;;;;;;;23.63;22.03;;;;;;;;;;5057297;28;20419;-89
2021/08/13 15:42:01;;;;;;;23.17;21.67;;;;;;;;;;5039541;28;20440;-89
2021/08/13 15:44:28;;;;;;;21.50;20.30;;;;;;;;;;5058619;28;20414;-88
2021/08/13 15:46:56;;;;;;;23.03;21.73;;;;;;;;;;5056908;28;20457;-89
2021/08/13 15:49:24;;;;;;;24.00;22.40;;;;;;;;;;5057315;28;20451;-89
2021/08/13 15:51:52;;;;;;;23.87;22.47;;;;;;;;;;5057414;28;20447;-87
2021/08/13 15:54:20;;;;;;;24.50;23.10;;;;;;;;;;5056000;28;20406;-88
2021/08/13 15:56:47;;;;;;;23.53;22.13;;;;;;;;;;5055511;28;20767;-88
2021/08/13 15:59:14;;;;;;;23.20;21.60;;;;;;;;;;5055243;28;20443;-87
2021/08/13 16:01:44;;;;;;;23.40;21.90;;;;;;;;;;5054920;28;20483;-86
2021/08/13 16:04:11;;;;;;;23.90;22.33;;;;;;;;;;5055091;28;20490;-86
2021/08/13 16:06:41;;;;;;;23.40;22.00;;;;;;;;;;5055035;28;20967;-87
2021/08/13 16:09:08;;;;;;;23.63;22.23;;;;;;;;;;5054745;28;20423;-86
2021/08/13 16:11:36;;;;;;;23.40;21.90;;;;;;;;;;5054634;28;20472;-86
2021/08/13 16:14:04;;;;;;;23.73;21.93;;;;;;;;;;5054997;28;20787;-86
2021/08/13 16:16:32;;;;;;;23.17;21.67;;;;;;;;;;5055057;28;20403;-86
2021/08/13 16:18:59;;;;;;;23.10;21.70;;;;;;;;;;5054639;28;20419;-86
2021/08/13 16:21:26;;;;;;;23.90;22.40;;;;;;;;;;5055648;28;20447;-87
2021/08/13 16:23:56;;;;;;;23.60;22.10;;;;;;;;;;5058582;28;20421;-96
2021/08/13 16:26:23;;;;;;;23.50;22.00;;;;;;;;;;5041150;28;20465;-96
2021/08/13 16:28:51;;;;;;;24.63;23.13;;;;;;;;;;5045347;28;20422;-95
2021/08/13 16:31:18;;;;;;;23.67;22.00;;;;;;;;;;5056815;28;20419;-94
2021/08/13 16:33:46;;;;;;;23.60;22.00;;;;;;;;;;5054863;28;20899;-94
2021/08/13 16:36:14;;;;;;;24.20;22.60;;;;;;;;;;5038133;28;20423;-96
2021/08/13 16:38:41;;;;;;;25.30;23.60;;;;;;;;;;5055716;28;20410;-90
2021/08/13 16:41:10;;;;;;;25.03;23.50;;;;;;;;;;5055253;28;20411;-85
2021/08/13 16:43:38;;;;;;;25.53;23.53;;;;;;;;;;5055418;28;20425;-85
2021/08/13 16:46:05;;;;;;;25.23;23.43;;;;;;;;;;5052950;28;20510;-94
2021/08/13 16:48:32;;;;;;;25.63;23.80;;;;;;;;;;5043003;28;20445;-92
2021/08/13 16:51:00;;;;;;;25.53;23.60;;;;;;;;;;5040406;28;20453;-92
2021/08/13 16:53:27;;;;;;;26.03;24.23;;;;;;;;;;5041541;28;20448;-91
2021/08/13 16:55:55;;;;;;;24.60;23.10;;;;;;;;;;5041359;28;20430;-93
2021/08/13 16:58:24;;;;;;;26.57;24.20;;;;;;;;;;5021142;28;20442;-93
2021/08/13 17:00:51;;;;;;;26.43;24.73;;;;;;;;;;5041250;28;20451;-92
2021/08/13 17:03:19;;;;;;;26.30;24.40;;;;;;;;;;5039452;28;20426;-92
2021/08/13 17:05:46;;;;;;;25.47;23.87;;;;;;;;;;5022909;28;20816;-91
2021/08/13 17:08:14;;;;;;;26.37;24.53;;;;;;;;;;5041167;28;20459;-92
2021/08/13 17:10:42;;;;;;;26.10;24.37;;;;;;;;;;5036349;28;20490;-88
2021/08/13 17:13:09;;;;;;;25.83;23.90;;;;;;;;;;5041382;28;20498;-90
2021/08/13 17:15:39;;;;;;;25.90;23.80;;;;;;;;;;5041068;28;20430;-94
2021/08/13 17:18:06;;;;;;;26.67;24.57;;;;;;;;;;5021828;28;20471;-92
2021/08/13 17:20:34;;;;;;;25.23;23.43;;;;;;;;;;5039402;28;20441;-92
2021/08/13 17:23:01;;;;;;;25.13;23.43;;;;;;;;;;5022286;28;20467;-92
2021/08/13 17:25:29;;;;;;;26.73;24.40;;;;;;;;;;5039378;28;20437;-91
2021/08/13 17:27:56;;;;;;;25.77;23.80;;;;;;;;;;5041652;28;20447;-90
2021/08/13 17:30:24;;;;;;;24.50;22.90;;;;;;;;;;5040075;28;20447;-88
2021/08/13 17:32:52;;;;;;;25.60;23.60;;;;;;;;;;5037215;28;20454;-92
2021/08/13 17:35:20;;;;;;;25.83;23.83;;;;;;;;;;5039217;28;20458;-90
2021/08/13 17:37:47;;;;;;;26.10;24.40;;;;;;;;;;5025026;28;20430;-91
2021/08/13 17:40:15;;;;;;;25.67;23.90;;;;;;;;;;5046959;28;20470;-93
2021/08/13 17:42:42;;;;;;;25.20;23.40;;;;;;;;;;5042203;28;20439;-91
2021/08/13 17:45:10;;;;;;;26.03;23.90;;;;;;;;;;5044951;28;20434;-91
2021/08/13 17:47:38;;;;;;;25.13;23.53;;;;;;;;;;5042978;28;20491;-92
2021/08/13 17:50:08;;;;;;;25.90;23.57;;;;;;;;;;5027358;28;20464;-92
2021/08/13 17:52:35;;;;;;;25.23;23.27;;;;;;;;;;5043001;28;20468;-92
2021/08/13 17:55:03;;;;;;;25.43;23.50;;;;;;;;;;5044785;28;20429;-92
2021/08/13 17:57:30;;;;;;;24.90;23.00;;;;;;;;;;5043116;28;20798;-91
2021/08/13 17:59:57;;;;;;;23.60;22.10;;;;;;;;;;5043870;28;20470;-91
2021/08/13 18:02:25;;;;;;;25.60;23.90;;;;;;;;;;5022908;28;20450;-90
2021/08/13 18:04:52;;;;;;;26.10;24.30;;;;;;;;;;5043442;28;20814;-90
2021/08/13 18:07:21;;;;;;;25.90;24.17;;;;;;;;;;5025279;28;20546;-89
2021/08/13 18:09:49;;;;;;;26.10;24.20;;;;;;;;;;5042113;28;20494;-90
2021/08/13 18:12:17;;;;;;;24.23;22.53;;;;;;;;;;5044241;28;20435;-89
2021/08/13 18:14:45;;;;;;;24.57;22.73;;;;;;;;;;5043268;28;20443;-91
2021/08/13 18:17:12;;;;;;;25.63;23.50;;;;;;;;;;5044355;28;20882;-92
2021/08/13 18:19:39;;;;;;;24.10;22.20;;;;;;;;;;5042635;28;20463;-89
2021/08/13 18:22:09;;;;;;;25.30;23.60;;;;;;;;;;5043570;28;20433;-92
2021/08/13 18:24:39;;;;;;;25.63;23.93;;;;;;;;;;5044942;28;20437;-88
2021/08/13 18:27:07;;;;;;;23.90;22.40;;;;;;;;;;5044708;28;20472;-92
2021/08/13 18:29:35;;;;;;;24.37;22.57;;;;;;;;;;5044136;28;20433;-92
2021/08/13 18:32:04;;;;;;;23.63;22.13;;;;;;;;;;5044781;28;20413;-92
2021/08/13 18:34:32;;;;;;;25.00;23.00;;;;;;;;;;5040989;28;20568;-89
2021/08/13 18:36:59;;;;;;;23.67;22.17;;;;;;;;;;5042272;28;20533;-89
2021/08/13 18:39:29;;;;;;;25.80;23.60;;;;;;;;;;5042608;28;20477;-88
2021/08/13 18:41:58;;;;;;;26.00;23.80;;;;;;;;;;5041549;28;20962;-87
2021/08/13 18:44:26;;;;;;;25.30;23.13;;;;;;;;;;5024395;28;20472;-88
2021/08/13 18:46:55;;;;;;;24.90;23.20;;;;;;;;;;5040928;28;20516;-88
2021/08/13 18:49:23;;;;;;;24.83;22.90;;;;;;;;;;5041879;28;20462;-90
2021/08/13 18:51:50;;;;;;;23.90;22.30;;;;;;;;;;5042967;28;20426;-88
2021/08/13 18:54:17;;;;;;;24.20;22.60;;;;;;;;;;5045521;28;20409;-93
2021/08/13 18:56:45;;;;;;;23.70;22.10;;;;;;;;;;5041918;28;20430;-91
2021/08/13 18:59:14;;;;;;;23.40;21.80;;;;;;;;;;5043694;28;20459;-90
2021/08/13 19:01:41;;;;;;;23.70;21.93;;;;;;;;;;5043500;28;20425;-91
2021/08/13 19:04:08;;;;;;;24.33;22.73;;;;;;;;;;5040183;28;20462;-90
2021/08/13 19:06:36;;;;;;;24.20;22.60;;;;;;;;;;5044131;28;20463;-91
2021/08/13 19:09:03;;;;;;;24.97;23.10;;;;;;;;;;5042080;28;20461;-91
2021/08/13 19:11:31;;;;;;;25.63;23.63;;;;;;;;;;5041537;28;20478;-90
2021/08/13 19:13:58;;;;;;;24.83;22.73;;;;;;;;;;5041888;28;20418;-91
2021/08/13 19:16:27;;;;;;;23.50;21.90;;;;;;;;;;5039658;28;20451;-90
2021/08/13 19:18:54;;;;;;;24.33;22.57;;;;;;;;;;5043056;28;21055;-90
2021/08/13 19:21:22;;;;;;;24.50;22.80;;;;;;;;;;5044008;28;20451;-90
2021/08/13 19:23:49;;;;;;;24.73;22.97;;;;;;;;;;5041824;28;20940;-89
2021/08/13 19:26:19;;;;;;;24.20;22.80;;;;;;;;;;5044932;28;20784;-91
2021/08/13 19:28:47;;;;;;;24.73;23.00;;;;;;;;;;5041687;28;20467;-91
2021/08/13 19:31:15;;;;;;;25.13;23.10;;;;;;;;;;5025003;28;20453;-91
2021/08/13 19:33:43;;;;;;;23.93;22.50;;;;;;;;;;5042661;28;20462;-91
2021/08/13 19:36:11;;;;;;;24.10;22.30;;;;;;;;;;5038053;28;20469;-91
2021/08/13 19:38:39;;;;;;;24.27;22.60;;;;;;;;;;5021831;28;20436;-91
2021/08/13 19:41:06;;;;;;;24.57;23.00;;;;;;;;;;5021083;28;20441;-91
2021/08/13 19:43:34;;;;;;;23.60;22.20;;;;;;;;;;5041716;28;20803;-91
2021/08/13 19:46:01;;;;;;;23.97;22.50;;;;;;;;;;5040979;28;20509;-91
2021/08/13 19:48:28;;;;;;;24.17;22.67;;;;;;;;;;5043337;28;20461;-90
2021/08/13 19:50:57;;;;;;;23.93;22.17;;;;;;;;;;5037648;28;20441;-91
2021/08/13 19:53:25;;;;;;;24.17;22.67;;;;;;;;;;5041003;28;20436;-91
2021/08/13 19:55:52;;;;;;;23.87;22.07;;;;;;;;;;5040622;28;20451;-91
2021/08/13 19:58:20;;;;;;;23.07;21.57;;;;;;;;;;5040531;28;20453;-88
2021/08/13 20:00:49;;;;;;;24.57;22.97;;;;;;;;;;5040998;28;20443;-91
2021/08/13 20:03:16;;;;;;;23.43;21.83;;;;;;;;;;5041334;28;20436;-91
2021/08/13 20:05:44;;;;;;;23.70;22.20;;;;;;;;;;5039927;28;20458;-90
2021/08/13 20:08:13;;;;;;;24.23;22.53;;;;;;;;;;5043158;28;20489;-91
2021/08/13 20:10:40;;;;;;;25.30;23.30;;;;;;;;;;5040245;28;20488;-91
2021/08/13 20:13:07;;;;;;;24.00;22.40;;;;;;;;;;5041156;28;20468;-90